Time;durP1;ratioP1;P1;durP2;ratioP2;P2;SDS_P1;SDS_P2;PMS_P1;PMS_P2;Temp;Humidity;BMP_temperature;BMP_pressure;BME280_temperature;BME280_humidity;BME280_pressure;Samples;Min_cycle;Max_cycle;Signal;HPM_P1;HPM_P2
2023/01/12 00:01:21;;;;;;;13.45;2.42;;;;;;;7.75;100.00;101020.94;5344694;27;20055;-81
2023/01/12 00:03:54;;;;;;;13.40;3.50;;;;;;;7.81;100.00;101027.59;5341535;27;20028;-81
2023/01/12 00:06:25;;;;;;;14.50;2.72;;;;;;;7.80;100.00;101013.47;5340790;27;20036;-81
2023/01/12 00:08:58;;;;;;;12.82;3.03;;;;;;;7.82;100.00;101008.00;5343370;27;20031;-81
2023/01/12 00:11:29;;;;;;;10.75;2.65;;;;;;;7.84;100.00;101022.03;5339660;27;20266;-81
2023/01/12 00:14:00;;;;;;;11.63;3.25;;;;;;;7.84;100.00;100992.81;5340389;27;20023;-81
2023/01/12 00:16:39;;;;;;;15.70;3.03;;;;;;;7.85;100.00;100991.84;5341476;27;20019;-81
2023/01/12 00:19:19;;;;;;;15.68;3.88;;;;;;;7.87;100.00;100996.09;5320422;27;20023;-81
2023/01/12 00:22:12;;;;;;;12.82;3.03;;;;;;;7.87;100.00;100976.63;5338996;27;20554;-82
2023/01/12 00:24:46;;;;;;;17.92;4.68;;;;;;;7.89;100.00;100988.84;5341125;27;20065;-81
2023/01/12 00:27:19;;;;;;;15.85;3.35;;;;;;;7.90;100.00;100987.84;5321796;27;20032;-81
2023/01/12 00:29:51;;;;;;;15.50;3.15;;;;;;;7.89;100.00;100996.81;5342375;27;20495;-81
2023/01/12 00:32:22;;;;;;;14.88;4.05;;;;;;;7.93;100.00;100976.16;5344478;27;20039;-82
2023/01/12 00:34:53;;;;;;;14.30;3.60;;;;;;;7.94;100.00;100985.81;5345786;27;20024;-80
2023/01/12 00:37:25;;;;;;;20.73;4.10;;;;;;;7.97;100.00;100974.09;5342503;27;20110;-81
2023/01/12 00:39:57;;;;;;;10.77;3.17;;;;;;;8.01;100.00;100968.44;5338939;27;20024;-80
2023/01/12 00:45:21;;;;;;;16.55;3.47;;;;;;;8.04;100.00;100965.50;5346270;27;20020;-81
2023/01/12 00:47:52;;;;;;;18.25;3.67;;;;;;;8.02;100.00;100953.31;5341556;27;20440;-82
2023/01/12 00:50:24;;;;;;;14.32;3.30;;;;;;;8.07;100.00;100965.28;5334917;27;20089;-81
2023/01/12 00:52:55;;;;;;;13.70;3.97;;;;;;;8.06;100.00;100947.63;5335609;27;20106;-81
2023/01/12 00:55:26;;;;;;;15.98;3.42;;;;;;;8.01;100.00;100952.50;5342857;27;20059;-81
2023/01/12 00:57:57;;;;;;;15.23;3.35;;;;;;;8.02;100.00;100940.03;5337457;27;20035;-80
2023/01/12 01:00:29;;;;;;;17.40;3.83;;;;;;;8.01;100.00;100944.53;5336780;27;20032;-81
2023/01/12 01:03:00;;;;;;;18.90;4.18;;;;;;;8.02;100.00;100943.53;5337522;27;20020;-81
2023/01/12 01:05:31;;;;;;;10.57;3.42;;;;;;;8.03;100.00;100937.28;5342556;27;20409;-81
2023/01/12 01:08:03;;;;;;;18.85;4.22;;;;;;;8.03;100.00;100920.47;5340155;27;20031;-81
2023/01/12 01:10:35;;;;;;;13.73;3.75;;;;;;;8.06;100.00;100922.88;5348968;27;20027;-81
2023/01/12 01:13:07;;;;;;;16.58;4.60;;;;;;;8.03;100.00;100929.31;5346695;27;20031;-81
2023/01/12 01:15:38;;;;;;;20.88;5.38;;;;;;;8.03;100.00;100916.03;5342410;27;20032;-81
2023/01/12 01:18:09;;;;;;;20.90;4.13;;;;;;;8.06;100.00;100929.03;5338726;27;20028;-81
2023/01/12 01:20:45;;;;;;;25.75;5.00;;;;;;;8.07;100.00;100916.63;5332273;27;20580;-81
2023/01/12 01:23:16;;;;;;;21.73;4.82;;;;;;;8.04;100.00;100920.34;5336043;27;20036;-80
2023/01/12 01:25:48;;;;;;;22.30;5.13;;;;;;;8.06;100.00;100909.59;5336479;27;20036;-80
2023/01/12 01:28:20;;;;;;;27.33;4.80;;;;;;;8.06;100.00;100907.78;5339441;27;20575;-81
2023/01/12 01:30:51;;;;;;;18.55;4.28;;;;;;;8.08;100.00;100902.34;5339321;27;20496;-81
2023/01/12 01:33:22;;;;;;;28.17;5.45;;;;;;;8.08;100.00;100910.31;5336611;27;21445;-81
2023/01/12 01:35:55;;;;;;;24.20;5.22;;;;;;;8.07;100.00;100898.00;5336662;27;20021;-81
2023/01/12 01:38:27;;;;;;;22.73;4.80;;;;;;;8.03;100.00;100905.41;5316046;27;20031;-81
2023/01/12 01:40:58;;;;;;;23.55;4.97;;;;;;;8.03;100.00;100905.41;5339964;27;20031;-81
2023/01/12 01:43:51;;;;;;;28.60;7.07;;;;;;;8.09;100.00;100898.72;5337767;27;20020;-81
2023/01/12 01:46:35;;;;;;;24.90;6.32;;;;;;;8.08;100.00;100895.25;5337188;27;20127;-82
2023/01/12 01:49:36;;;;;;;21.13;4.75;;;;;;;8.03;100.00;100889.44;5337505;27;20024;-81
2023/01/12 01:52:15;;;;;;;28.83;4.50;;;;;;;8.04;100.00;100877.00;5326926;27;20269;-82
2023/01/12 01:54:58;;;;;;;25.90;5.30;;;;;;;8.02;100.00;100868.31;5340010;27;20106;-82
2023/01/12 01:57:35;;;;;;;25.15;4.93;;;;;;;8.03;100.00;100868.19;5309319;27;20040;-81
2023/01/12 02:00:09;;;;;;;29.85;5.03;;;;;;;8.00;100.00;100859.66;5333359;27;20467;-81
2023/01/12 02:02:44;;;;;;;21.63;5.00;;;;;;;7.99;100.00;100850.81;5337879;27;20031;-82
2023/01/12 02:05:18;;;;;;;25.13;5.18;;;;;;;8.00;100.00;100859.66;5334776;27;20027;-81
2023/01/12 02:07:52;;;;;;;24.95;4.80;;;;;;;7.95;100.00;100841.41;5339781;27;20077;-81
2023/01/12 02:10:23;;;;;;;25.75;4.60;;;;;;;8.00;100.00;100844.53;5337021;27;20047;-81
2023/01/12 02:16:20;;;;;;;26.50;5.15;;;;;;;7.98;100.00;100833.19;5336793;27;20032;-82
2023/01/12 02:19:04;;;;;;;22.38;4.97;;;;;;;8.06;100.00;100841.38;5332855;27;20035;-82
2023/01/12 02:21:44;;;;;;;26.80;4.80;;;;;;;8.06;100.00;100844.03;5330224;27;20510;-82
2023/01/12 02:24:29;;;;;;;24.60;4.78;;;;;;;8.05;100.00;100834.38;5312166;27;20034;-81
2023/01/12 02:27:14;;;;;;;21.13;4.03;;;;;;;8.04;100.00;100864.56;5336929;27;20055;-81
2023/01/12 02:30:12;;;;;;;23.88;5.05;;;;;;;8.10;100.00;100844.63;5339655;27;20488;-82
2023/01/12 02:32:53;;;;;;;28.95;4.75;;;;;;;8.08;100.00;100843.91;5313331;27;20043;-81
2023/01/12 02:35:46;;;;;;;21.98;5.50;;;;;;;8.10;100.00;100826.88;5339564;27;20031;-81
2023/01/12 02:38:32;;;;;;;22.33;4.63;;;;;;;8.12;100.00;100840.88;5335987;27;20034;-81
2023/01/12 02:41:06;;;;;;;22.33;4.75;;;;;;;8.14;100.00;100840.75;5338401;27;20016;-81
2023/01/12 02:43:39;;;;;;;22.40;5.20;;;;;;;8.12;100.00;100813.47;5337527;27;20380;-81
2023/01/12 02:46:26;;;;;;;21.13;4.28;;;;;;;8.13;100.00;100809.81;5337051;27;20028;-82
2023/01/12 02:49:04;;;;;;;22.05;3.97;;;;;;;8.19;100.00;100812.00;5337707;27;20028;-81
2023/01/12 02:51:46;;;;;;;17.33;4.20;;;;;;;8.18;100.00;100810.28;5336353;27;20476;-81
2023/01/12 02:54:20;;;;;;;16.70;3.80;;;;;;;8.15;100.00;100815.84;5336334;27;20102;-81
2023/01/12 02:56:56;;;;;;;23.48;4.13;;;;;;;8.17;100.00;100799.78;5336723;27;20020;-81
2023/01/12 02:59:31;;;;;;;18.53;4.43;;;;;;;8.17;100.00;100798.00;5337576;27;20103;-80
2023/01/12 03:02:12;;;;;;;24.20;4.33;;;;;;;8.15;100.00;100786.63;5334576;27;20032;-81
2023/01/12 03:04:44;;;;;;;16.98;4.13;;;;;;;8.16;100.00;100777.69;5334675;27;20050;-81
2023/01/12 03:07:23;;;;;;;19.10;4.22;;;;;;;8.16;100.00;100777.69;5337360;27;20136;-81
2023/01/12 03:10:09;;;;;;;25.77;4.43;;;;;;;8.16;100.00;100772.38;5331407;27;20032;-81
2023/01/12 03:12:43;;;;;;;21.63;3.65;;;;;;;8.21;100.00;100742.78;5339275;27;20039;-81
2023/01/12 03:15:17;;;;;;;20.67;3.63;;;;;;;8.17;100.00;100744.00;5343069;27;20028;-81
2023/01/12 03:18:14;;;;;;;19.85;4.80;;;;;;;8.17;100.00;100739.53;5338873;27;20036;-82
2023/01/12 03:20:50;;;;;;;23.42;4.45;;;;;;;8.14;100.00;100735.31;5324914;27;20109;-81
2023/01/12 03:23:31;;;;;;;18.45;3.28;;;;;;;8.14;100.00;100753.06;5334902;27;20407;-81
2023/01/12 03:26:04;;;;;;;17.85;4.72;;;;;;;8.15;100.00;100728.16;5332767;27;20123;-82
2023/01/12 03:28:37;;;;;;;18.70;3.10;;;;;;;8.13;100.00;100723.00;5341264;27;20437;-82
2023/01/12 03:31:12;;;;;;;20.45;4.13;;;;;;;8.16;100.00;100711.28;5334259;27;20044;-82
2023/01/12 03:33:44;;;;;;;23.25;4.55;;;;;;;8.14;100.00;100721.19;5341243;27;20035;-82
2023/01/12 03:36:36;;;;;;;16.63;3.83;;;;;;;8.17;100.00;100718.28;5342959;27;20041;-82
2023/01/12 03:39:24;;;;;;;18.13;3.42;;;;;;;8.18;100.00;100704.00;5297746;27;20028;-81
2023/01/12 03:42:04;;;;;;;14.10;3.45;;;;;;;8.17;100.00;100712.97;5343553;27;20035;-82
2023/01/12 03:44:42;;;;;;;26.52;3.75;;;;;;;8.17;100.00;100707.66;5337225;27;20329;-82
2023/01/12 03:47:22;;;;;;;18.40;3.22;;;;;;;8.10;100.00;100706.50;5347537;27;20035;-81
2023/01/12 03:50:05;;;;;;;16.48;3.20;;;;;;;8.13;100.00;100669.88;5344212;27;20046;-81
2023/01/12 03:52:39;;;;;;;16.98;3.70;;;;;;;8.11;100.00;100663.00;5336906;27;20038;-81
2023/01/12 03:55:17;;;;;;;22.88;3.33;;;;;;;8.10;100.00;100637.41;5339435;27;20028;-81
2023/01/12 03:57:51;;;;;;;20.30;3.40;;;;;;;8.06;100.00;100615.56;5339098;27;20051;-82
2023/01/12 04:00:26;;;;;;;17.58;3.72;;;;;;;8.06;100.00;100626.19;5330722;27;20047;-81
2023/01/12 04:03:08;;;;;;;19.85;3.70;;;;;;;8.02;100.00;100618.63;5336376;27;20038;-81
2023/01/12 04:05:41;;;;;;;19.73;3.58;;;;;;;8.01;100.00;100641.72;5339597;27;20390;-81
2023/01/12 04:08:14;;;;;;;20.85;4.07;;;;;;;8.06;100.00;100626.19;5339534;27;20030;-82
2023/01/12 04:10:46;;;;;;;17.13;3.83;;;;;;;8.06;100.00;100585.50;5341322;27;20038;-81
2023/01/12 04:13:17;;;;;;;16.38;4.07;;;;;;;8.05;100.00;100587.34;5338240;27;20023;-82
2023/01/12 04:15:48;;;;;;;17.73;3.72;;;;;;;8.06;100.00;100593.47;5335346;27;20027;-82
2023/01/12 04:18:20;;;;;;;14.75;3.80;;;;;;;8.09;100.00;100577.28;5338455;27;20035;-82
2023/01/12 04:20:51;;;;;;;17.48;3.83;;;;;;;8.07;100.00;100587.22;5338021;27;20051;-82
2023/01/12 04:23:22;;;;;;;23.95;5.32;;;;;;;8.05;100.00;100590.00;5340383;27;20401;-82
2023/01/12 04:25:53;;;;;;;23.85;5.28;;;;;;;8.07;100.00;100564.13;5337802;27;20066;-82
2023/01/12 04:28:25;;;;;;;19.33;4.50;;;;;;;8.04;100.00;100564.38;5333123;27;20031;-82
2023/01/12 04:30:56;;;;;;;22.80;4.70;;;;;;;8.02;100.00;100562.84;5314859;27;20027;-82
2023/01/12 04:33:27;;;;;;;21.02;4.90;;;;;;;8.00;100.00;100570.94;5338939;27;20019;-81
2023/01/12 04:35:58;;;;;;;19.35;4.78;;;;;;;7.96;100.00;100553.59;5337045;27;20043;-82
2023/01/12 04:38:30;;;;;;;22.50;4.82;;;;;;;7.98;100.00;100529.53;5333739;27;20032;-82
2023/01/12 04:41:01;;;;;;;21.40;4.68;;;;;;;8.02;100.00;100552.22;5338298;27;20100;-81
2023/01/12 04:43:34;;;;;;;18.38;4.00;;;;;;;8.03;100.00;100551.25;5334769;27;20132;-83
2023/01/12 04:46:08;;;;;;;20.55;3.60;;;;;;;8.01;100.00;100511.56;5335440;27;20034;-83
2023/01/12 04:48:42;;;;;;;21.30;4.68;;;;;;;7.98;100.00;100498.53;5336250;27;20039;-82
2023/01/12 04:51:14;;;;;;;16.70;3.67;;;;;;;7.99;100.00;100484.25;5330568;27;20594;-82
2023/01/12 04:53:47;;;;;;;16.52;3.90;;;;;;;8.23;100.00;100512.31;5332913;27;20028;-82
2023/01/12 04:56:18;;;;;;;16.33;3.95;;;;;;;8.44;100.00;100494.50;5339173;27;20027;-82
2023/01/12 04:58:59;;;;;;;16.35;3.55;;;;;;;8.51;100.00;100477.00;5338532;27;20043;-82
2023/01/12 05:01:30;;;;;;;18.05;3.90;;;;;;;8.49;100.00;100508.22;5334762;27;20023;-82
2023/01/12 05:04:01;;;;;;;18.00;3.75;;;;;;;8.54;100.00;100498.97;5336278;27;20073;-82
2023/01/12 05:06:33;;;;;;;22.85;4.50;;;;;;;8.63;100.00;100504.31;5334179;27;20024;-83
2023/01/12 05:11:54;;;;;;;16.98;3.90;;;;;;;8.62;100.00;100497.31;5339816;27;20085;-82
2023/01/12 05:14:25;;;;;;;15.23;4.88;;;;;;;8.58;100.00;100506.53;5330882;27;20116;-81
2023/01/12 05:17:03;;;;;;;18.27;4.60;;;;;;;8.65;100.00;100491.72;5331481;27;20039;-82
2023/01/12 05:19:35;;;;;;;17.67;3.53;;;;;;;8.65;100.00;100483.75;5334855;27;20032;-83
2023/01/12 05:22:06;;;;;;;25.63;5.53;;;;;;;8.45;100.00;100480.25;5334720;27;20040;-82
2023/01/12 05:24:37;;;;;;;20.27;4.28;;;;;;;8.46;100.00;100473.91;5336452;27;20059;-82
2023/01/12 05:27:09;;;;;;;19.95;3.65;;;;;;;8.51;100.00;100484.16;5332700;27;20118;-81
2023/01/12 05:29:40;;;;;;;22.75;3.88;;;;;;;8.48;100.00;100487.09;5337325;27;36664;-82
2023/01/12 05:32:11;;;;;;;19.33;4.03;;;;;;;8.46;100.00;100503.16;5315871;27;20613;-81
2023/01/12 05:34:43;;;;;;;24.10;4.15;;;;;;;8.48;100.00;100503.03;5334330;27;20020;-81
2023/01/12 05:37:14;;;;;;;15.23;3.83;;;;;;;8.55;100.00;100484.72;5335163;27;20023;-82
2023/01/12 05:39:45;;;;;;;18.80;4.57;;;;;;;8.49;100.00;100473.66;5329953;27;27396;-81
2023/01/12 05:45:07;;;;;;;16.30;2.95;;;;;;;8.52;100.00;100497.31;5334548;27;20028;-81
2023/01/12 05:47:38;;;;;;;17.30;3.30;;;;;;;8.49;100.00;100476.31;5329594;27;20035;-80
2023/01/12 05:50:10;;;;;;;18.00;3.22;;;;;;;8.49;100.00;100472.81;5337405;27;20023;-81
2023/01/12 05:52:41;;;;;;;20.30;3.47;;;;;;;8.55;100.00;100484.72;5340004;27;20122;-81
2023/01/12 05:55:13;;;;;;;17.15;3.30;;;;;;;8.49;100.00;100463.03;5334245;27;20045;-82
2023/01/12 05:57:44;;;;;;;15.27;3.45;;;;;;;8.56;100.00;100471.28;5334610;27;20110;-82
2023/01/12 06:00:16;;;;;;;14.07;2.78;;;;;;;8.54;100.00;100488.34;5329542;27;20031;-82
2023/01/12 06:02:48;;;;;;;11.10;2.80;;;;;;;8.56;100.00;100450.03;5336227;27;20027;-82
2023/01/12 06:05:19;;;;;;;14.05;3.92;;;;;;;8.56;100.00;100446.53;5335317;27;20050;-82
2023/01/12 06:07:50;;;;;;;15.02;3.20;;;;;;;8.57;100.00;100450.84;5336000;27;20049;-82
2023/01/12 06:10:22;;;;;;;14.63;3.03;;;;;;;8.60;100.00;100454.06;5333072;27;20032;-81
2023/01/12 06:15:43;;;;;;;15.20;3.08;;;;;;;8.64;100.00;100471.44;5333560;27;20800;-81
2023/01/12 06:18:16;;;;;;;18.05;3.28;;;;;;;8.66;100.00;100452.66;5336724;27;20036;-82
2023/01/12 06:20:47;;;;;;;11.45;3.28;;;;;;;8.66;100.00;100472.16;5331313;27;20050;-81
2023/01/12 06:23:19;;;;;;;13.32;3.17;;;;;;;8.72;100.00;100473.41;5331469;27;20479;-81
2023/01/12 06:25:50;;;;;;;15.32;2.75;;;;;;;8.78;100.00;100482.63;5338481;27;20701;-82
2023/01/12 06:28:21;;;;;;;8.05;2.58;;;;;;;8.81;100.00;100474.38;5334197;27;20024;-81
2023/01/12 06:31:01;;;;;;;11.85;2.78;;;;;;;8.86;100.00;100472.97;5333762;27;20039;-81
2023/01/12 06:33:33;;;;;;;10.50;2.40;;;;;;;8.84;100.00;100480.25;5335938;27;20402;-81
2023/01/12 06:36:05;;;;;;;9.50;2.70;;;;;;;8.89;100.00;100478.03;5341648;27;20379;-81
2023/01/12 06:38:37;;;;;;;8.60;3.00;;;;;;;8.84;100.00;100477.59;5342565;27;20517;-82
2023/01/12 06:44:00;;;;;;;8.20;2.20;;;;;;;8.93;100.00;100499.84;5340416;27;20075;-82
2023/01/12 06:46:31;;;;;;;9.32;2.53;;;;;;;8.86;100.00;100470.31;5318263;27;20063;-81
2023/01/12 06:49:06;;;;;;;8.43;2.55;;;;;;;8.83;100.00;100470.59;5338566;27;20019;-81
2023/01/12 06:51:37;;;;;;;14.98;3.10;;;;;;;8.85;100.00;100471.31;5340457;27;20099;-81
2023/01/12 06:54:09;;;;;;;9.55;2.28;;;;;;;8.88;100.00;100478.16;5339859;27;20138;-81
2023/01/12 06:56:40;;;;;;;8.85;2.42;;;;;;;8.85;100.00;100457.16;5338862;27;20494;-81
2023/01/12 06:59:14;;;;;;;9.52;2.35;;;;;;;8.86;100.00;100490.75;5338297;27;20138;-82
2023/01/12 07:01:45;;;;;;;10.55;2.78;;;;;;;8.87;100.00;100447.22;5337673;27;20039;-81
2023/01/12 07:04:17;;;;;;;8.80;2.38;;;;;;;8.91;100.00;100447.78;5342722;27;20512;-82
2023/01/12 07:06:48;;;;;;;9.05;2.33;;;;;;;8.86;100.00;100454.34;5341686;27;20020;-82
2023/01/12 07:09:20;;;;;;;9.13;2.10;;;;;;;8.86;100.00;100454.34;5345961;27;20035;-82
2023/01/12 07:11:51;;;;;;;8.57;2.53;;;;;;;8.88;100.00;100456.88;5337994;27;20105;-81
2023/01/12 07:14:23;;;;;;;8.50;2.65;;;;;;;8.86;100.00;100457.00;5318947;27;20016;-82
2023/01/12 07:16:54;;;;;;;8.20;2.38;;;;;;;8.88;100.00;100464.84;5343189;27;20365;-82
2023/01/12 07:19:25;;;;;;;9.80;2.33;;;;;;;8.92;100.00;100458.25;5353089;27;20059;-82
2023/01/12 07:21:57;;;;;;;6.18;2.10;;;;;;;8.92;100.00;100463.59;5348999;27;20150;-82
2023/01/12 07:24:28;;;;;;;7.22;2.15;;;;;;;8.97;100.00;100457.84;5342496;27;20024;-82
2023/01/12 07:27:00;;;;;;;12.30;2.25;;;;;;;8.95;100.00;100500.56;5348735;27;20027;-82
2023/01/12 07:29:31;;;;;;;10.80;2.97;;;;;;;8.96;100.00;100488.94;5348279;27;20012;-82
2023/01/12 07:32:03;;;;;;;7.63;2.28;;;;;;;8.99;100.00;100463.88;5349087;27;20429;-82
2023/01/12 07:34:34;;;;;;;7.40;2.35;;;;;;;8.97;100.00;100479.97;5349745;27;20015;-81
2023/01/12 07:37:05;;;;;;;11.35;2.65;;;;;;;9.01;100.00;100484.03;5349379;27;20138;-81
2023/01/12 07:39:37;;;;;;;7.07;2.03;;;;;;;9.03;100.00;100484.75;5347381;27;37055;-82
2023/01/12 07:42:23;;;;;;;8.27;2.42;;;;;;;9.03;100.00;100486.56;5349274;27;20047;-81
2023/01/12 07:44:55;;;;;;;7.45;2.17;;;;;;;9.06;100.00;100511.06;5349553;27;20086;-81
2023/01/12 07:47:26;;;;;;;6.78;2.40;;;;;;;9.06;100.00;100492.44;5348875;27;20103;-82
2023/01/12 07:49:58;;;;;;;6.72;1.90;;;;;;;9.11;100.00;100484.03;5349516;27;20016;-83
2023/01/12 07:52:29;;;;;;;7.00;2.67;;;;;;;9.13;100.00;100491.88;5347716;27;20426;-82
2023/01/12 07:55:00;;;;;;;7.28;2.63;;;;;;;9.14;100.00;100494.38;5349682;27;20484;-81
2023/01/12 07:57:32;;;;;;;7.70;2.08;;;;;;;9.18;100.00;100493.09;5348843;27;20052;-82
2023/01/12 08:00:04;;;;;;;9.38;2.20;;;;;;;9.15;100.00;100501.41;5346315;27;20074;-82
2023/01/12 08:02:36;;;;;;;6.97;2.10;;;;;;;9.19;100.00;100494.81;5326374;28;20115;-82
2023/01/12 08:05:07;;;;;;;9.93;1.92;;;;;;;9.22;100.00;100514.97;5328635;27;20522;-82
2023/01/12 08:07:38;;;;;;;7.88;2.65;;;;;;;9.17;100.00;100494.13;5348129;27;20368;-82
2023/01/12 08:10:11;;;;;;;8.15;2.80;;;;;;;9.22;100.00;100515.81;5330410;27;20026;-82
2023/01/12 08:12:43;;;;;;;6.03;2.50;;;;;;;9.21;100.00;100526.59;5348716;27;20038;-82
2023/01/12 08:15:14;;;;;;;9.20;2.72;;;;;;;9.19;100.00;100510.78;5359859;27;20015;-82
2023/01/12 08:17:51;;;;;;;5.85;2.45;;;;;;;9.23;100.00;100535.28;5361200;27;20038;-81
2023/01/12 08:20:27;;;;;;;5.05;2.30;;;;;;;9.22;100.00;100505.16;5353114;27;20039;-79
2023/01/12 08:23:03;;;;;;;5.97;2.00;;;;;;;9.28;100.00;100512.56;5350475;27;20019;-81
2023/01/12 08:25:43;;;;;;;5.50;2.38;;;;;;;9.27;100.00;100534.88;5350575;27;20115;-80
2023/01/12 08:28:18;;;;;;;4.20;1.80;;;;;;;9.28;100.00;100549.00;5363871;27;20020;-80
2023/01/12 08:30:50;;;;;;;5.40;2.28;;;;;;;9.29;100.00;100550.66;5368409;27;20034;-81
2023/01/12 08:33:22;;;;;;;8.10;2.03;;;;;;;9.33;100.00;100545.94;5369215;27;20049;-80
2023/01/12 08:35:54;;;;;;;4.07;2.00;;;;;;;9.30;100.00;100538.22;5367286;27;20015;-81
2023/01/12 08:38:25;;;;;;;4.53;2.10;;;;;;;9.34;100.00;100544.94;5337566;27;20027;-81
2023/01/12 08:44:01;;;;;;;7.22;2.20;;;;;;;9.42;100.00;100529.09;5337991;28;20028;-81
2023/01/12 08:46:46;;;;;;;4.07;1.98;;;;;;;9.43;100.00;100570.69;5336546;28;20018;-82
2023/01/12 08:49:23;;;;;;;7.13;3.05;;;;;;;9.45;100.00;100558.94;5336961;27;20146;-82
2023/01/12 08:51:55;;;;;;;6.57;1.98;;;;;;;9.48;100.00;100548.97;5352761;27;20635;-81
2023/01/12 08:54:26;;;;;;;7.65;2.47;;;;;;;9.46;100.00;100568.59;5355401;27;20012;-82
2023/01/12 08:56:58;;;;;;;5.93;2.15;;;;;;;9.48;100.00;100565.78;5351150;27;20396;-82
2023/01/12 08:59:29;;;;;;;4.03;2.30;;;;;;;9.50;100.00;100562.97;5348074;27;20087;-81
2023/01/12 09:02:01;;;;;;;5.55;2.35;;;;;;;9.52;100.00;100569.88;5349850;27;20077;-82
2023/01/12 09:04:32;;;;;;;4.32;2.05;;;;;;;9.50;100.00;100563.81;5353946;27;20544;-81
2023/01/12 09:07:04;;;;;;;5.20;2.13;;;;;;;9.49;100.00;100567.47;5335610;27;20099;-82
2023/01/12 09:09:36;;;;;;;5.47;2.10;;;;;;;9.51;100.00;100565.50;5355571;27;20024;-82
2023/01/12 09:12:07;;;;;;;4.07;2.15;;;;;;;9.55;100.00;100579.38;5331028;27;20024;-81
2023/01/12 09:14:38;;;;;;;3.58;2.22;;;;;;;9.55;100.00;100566.06;5347739;27;20088;-81
2023/01/12 09:17:10;;;;;;;4.28;1.98;;;;;;;9.62;100.00;100554.72;5347731;27;20020;-81
2023/01/12 09:19:43;;;;;;;4.40;1.73;;;;;;;9.60;100.00;100601.94;5346465;27;20464;-81
2023/01/12 09:22:14;;;;;;;5.15;2.20;;;;;;;9.59;100.00;100575.44;5347470;27;20047;-81
2023/01/12 09:24:46;;;;;;;3.88;2.05;;;;;;;9.63;100.00;100567.03;5347657;27;20073;-81
2023/01/12 09:27:17;;;;;;;6.80;2.17;;;;;;;9.68;100.00;100587.91;5347897;27;20099;-82
2023/01/12 09:29:48;;;;;;;3.17;1.85;;;;;;;9.69;100.00;100576.25;5347035;27;20085;-81
2023/01/12 09:32:19;;;;;;;3.08;1.90;;;;;;;9.70;100.00;100575.28;5346799;27;20482;-80
2023/01/12 09:34:53;;;;;;;2.60;1.92;;;;;;;9.73;100.00;100584.81;5327810;27;20370;-81
2023/01/12 09:37:25;;;;;;;4.88;2.17;;;;;;;9.73;100.00;100600.78;5347555;27;20023;-81
2023/01/12 09:39:56;;;;;;;3.30;1.48;;;;;;;9.72;100.00;100605.28;5347416;27;20482;-81
2023/01/12 09:48:12;;;;;;;3.65;1.60;;;;;;;9.70;100.00;100590.44;5347141;27;20024;-81
2023/01/12 09:50:54;;;;;;;4.57;1.85;;;;;;;9.80;100.00;100615.22;5347444;27;20015;-81
2023/01/12 09:53:31;;;;;;;2.80;1.38;;;;;;;9.76;100.00;100614.66;5346847;27;20024;-82
2023/01/12 09:56:18;;;;;;;4.80;1.30;;;;;;;9.85;100.00;100607.63;5346765;27;20047;-82
2023/01/12 09:58:52;;;;;;;2.70;1.48;;;;;;;9.77;100.00;100612.84;5346364;27;20031;-82
2023/01/12 10:01:24;;;;;;;2.03;1.30;;;;;;;9.79;100.00;100618.88;5346119;27;20491;-81
2023/01/12 10:03:58;;;;;;;2.75;1.33;;;;;;;9.78;100.00;100612.72;5328545;27;20028;-82
2023/01/12 10:06:31;;;;;;;2.92;1.70;;;;;;;9.81;100.00;100631.06;5346941;27;20012;-82
2023/01/12 10:09:05;;;;;;;4.15;1.75;;;;;;;9.79;100.00;100629.53;5347503;27;20016;-82
2023/01/12 10:12:03;;;;;;;3.55;2.20;;;;;;;9.82;100.00;100611.44;5346189;27;20028;-82
2023/01/12 10:15:01;;;;;;;3.78;1.80;;;;;;;9.87;100.00;100603.03;5327386;27;20067;-82
2023/01/12 10:17:38;;;;;;;;;;;;;;;9.86;100.00;100622.66;5326725;27;20012;-82
2023/01/12 10:20:20;;;;;;;3.10;1.48;;;;;;;9.91;100.00;100647.03;5327650;27;19912;-81
2023/01/12 10:23:00;;;;;;;2.50;1.40;;;;;;;9.80;100.00;100629.38;5322019;27;20036;-81
2023/01/12 10:25:54;;;;;;;4.13;1.40;;;;;;;9.81;100.00;100622.22;5324667;28;20032;-81
2023/01/12 10:28:32;;;;;;;2.03;1.10;;;;;;;9.84;100.00;100648.59;5318660;28;20330;-82
2023/01/12 10:31:04;;;;;;;2.50;1.05;;;;;;;9.79;100.00;100619.69;5324410;28;20044;-82
2023/01/12 10:33:35;;;;;;;4.13;1.30;;;;;;;9.84;100.00;100616.63;5325346;28;20016;-82
2023/01/12 10:36:17;;;;;;;1.73;1.02;;;;;;;9.89;100.00;100608.19;5330550;27;20113;-82
2023/01/12 10:38:53;;;;;;;2.15;1.02;;;;;;;9.93;100.00;100606.94;5346260;27;20452;-82
2023/01/12 10:41:26;;;;;;;2.75;1.10;;;;;;;9.97;100.00;100614.47;5345654;27;20634;-82
2023/01/12 10:43:57;;;;;;;1.88;0.95;;;;;;;9.93;100.00;100599.78;5346356;27;20050;-82
2023/01/12 10:46:33;;;;;;;1.73;1.02;;;;;;;9.96;100.00;100619.97;5346260;27;20028;-82
2023/01/12 10:49:21;;;;;;;1.90;1.00;;;;;;;9.99;100.00;100607.19;5346138;27;20388;-82
2023/01/12 10:51:59;;;;;;;1.77;0.80;;;;;;;10.01;100.00;100625.69;5351520;27;20039;-81
2023/01/12 10:54:33;;;;;;;2.03;1.10;;;;;;;10.00;100.00;100608.88;5351651;27;20024;-80
2023/01/12 10:57:22;;;;;;;1.77;1.10;;;;;;;9.97;100.00;100610.97;5351474;27;20073;-80
2023/01/12 10:59:57;;;;;;;0.98;0.95;;;;;;;9.99;100.00;100625.84;5326933;27;20023;-80
2023/01/12 11:02:41;;;;;;;1.60;1.10;;;;;;;10.00;100.00;100618.69;5325161;28;20400;-81
2023/01/12 11:05:25;;;;;;;2.90;1.00;;;;;;;9.95;100.00;100611.13;5336344;27;20034;-81
2023/01/12 11:07:56;;;;;;;2.80;1.60;;;;;;;9.94;100.00;100611.25;5346297;27;20019;-81
2023/01/12 11:10:35;;;;;;;3.25;1.48;;;;;;;9.97;100.00;100622.47;5346866;27;20034;-81
2023/01/12 11:13:23;;;;;;;1.77;1.15;;;;;;;10.00;100.00;100622.19;5345384;27;20588;-82
2023/01/12 11:16:08;;;;;;;1.67;1.20;;;;;;;9.99;100.00;100612.53;5327138;27;20035;-82
2023/01/12 11:18:46;;;;;;;1.95;1.20;;;;;;;9.98;100.00;100618.00;5345414;27;20024;-81
2023/01/12 11:21:23;;;;;;;3.63;1.38;;;;;;;10.01;100.00;100607.03;5319185;27;20036;-81
2023/01/12 11:24:09;;;;;;;;;;;;;;;10.04;100.00;100617.41;5346606;27;20525;-82
2023/01/12 11:27:06;;;;;;;2.83;1.30;;;;;;;10.05;100.00;100615.59;5345771;27;19961;-82
2023/01/12 11:29:49;;;;;;;3.83;1.20;;;;;;;9.99;100.00;100617.84;5344886;27;20020;-81
2023/01/12 11:32:37;;;;;;;1.98;1.48;;;;;;;10.09;100.00;100606.31;5352969;27;20027;-81
2023/01/12 11:35:30;;;;;;;3.80;1.20;;;;;;;10.07;100.00;100602.97;5367528;27;20035;-82
2023/01/12 11:38:12;;;;;;;2.65;1.40;;;;;;;10.08;100.00;100605.50;5367181;27;20019;-81
2023/01/12 11:40:45;;;;;;;1.42;1.25;;;;;;;10.07;100.00;100614.47;5367384;27;20026;-82
2023/01/12 11:46:35;;;;;;;2.63;1.60;;;;;;;10.07;100.00;100601.13;5365639;27;20015;-81
2023/01/12 11:49:25;;;;;;;2.08;1.40;;;;;;;10.07;100.00;100595.81;5345340;27;20383;-81
2023/01/12 11:51:58;;;;;;;2.60;1.35;;;;;;;10.03;100.00;100591.75;5345317;27;20092;-81
2023/01/12 11:54:30;;;;;;;6.18;1.95;;;;;;;10.10;100.00;100592.84;5348276;27;20012;-81
2023/01/12 11:57:25;;;;;;;2.58;1.40;;;;;;;10.08;100.00;100602.81;5348968;27;20114;-81
2023/01/12 12:00:02;;;;;;;1.42;1.30;;;;;;;10.06;100.00;100601.28;5342242;27;20077;-81
2023/01/12 12:02:37;;;;;;;1.30;1.20;;;;;;;10.07;100.00;100586.97;5369092;27;20090;-82
2023/01/12 12:05:45;;;;;;;3.75;1.30;;;;;;;10.11;100.00;100593.69;5370663;27;20019;-81
2023/01/12 12:08:19;;;;;;;1.80;1.17;;;;;;;10.14;100.00;100572.91;5370307;27;20019;-81
2023/01/12 12:11:00;;;;;;;2.08;1.20;;;;;;;10.12;100.00;100582.88;5368778;27;20052;-81
2023/01/12 12:14:14;;;;;;;1.90;1.05;;;;;;;10.18;100.00;100578.78;5368036;27;20057;-81
2023/01/12 12:17:02;;;;;;;1.35;0.85;;;;;;;10.17;100.00;100585.97;5369092;27;20021;-82
2023/01/12 12:19:42;;;;;;;4.25;1.20;;;;;;;10.14;100.00;100570.25;5370344;27;20080;-82
2023/01/12 12:22:28;;;;;;;2.75;0.93;;;;;;;10.18;100.00;100563.63;5354792;27;20508;-82
2023/01/12 12:25:22;;;;;;;3.40;1.20;;;;;;;10.11;100.00;100569.69;5329828;27;20100;-81
2023/01/12 12:28:19;;;;;;;2.78;1.42;;;;;;;10.10;100.00;100592.84;5348338;27;20317;-81